createdAt,value
2019-05-25T00:05:55.488Z,1010.07
2019-05-25T00:20:55.687Z,1010.21
2019-05-25T00:35:55.874Z,1010.35
2019-05-25T00:50:56.209Z,1010.36
2019-05-25T01:05:56.528Z,1010.53
2019-05-25T01:20:56.729Z,1010.62
2019-05-25T01:35:56.955Z,1010.62
2019-05-25T01:50:57.179Z,1010.71
2019-05-25T02:05:57.304Z,1010.70
2019-05-25T02:20:57.478Z,1010.77
2019-05-25T02:35:57.597Z,1010.74
2019-05-25T02:50:57.773Z,1010.87
2019-05-25T03:05:57.906Z,1010.94
2019-05-25T03:20:57.996Z,1010.95
2019-05-25T03:35:58.108Z,1011.01
2019-05-25T03:50:58.222Z,1011.17
2019-05-25T04:05:58.330Z,1011.21
2019-05-25T04:20:58.506Z,1011.16
2019-05-25T04:35:58.629Z,1011.33
2019-05-25T04:50:58.828Z,1011.53
2019-05-25T05:05:58.951Z,1011.72
2019-05-25T05:20:59.121Z,1011.75
2019-05-25T05:35:59.267Z,1011.74
2019-05-25T05:50:59.460Z,1011.80
2019-05-25T06:05:59.588Z,1012.02
2019-05-25T06:20:59.753Z,1012.11
2019-05-25T06:35:59.926Z,1012.22
2019-05-25T06:51:00.013Z,1012.25
2019-05-25T07:06:00.217Z,1012.46
2019-05-25T07:21:00.385Z,1012.56
2019-05-25T07:36:00.552Z,1012.64
2019-05-25T07:51:00.706Z,1012.75
2019-05-25T08:06:00.886Z,1012.85
2019-05-25T08:21:01.139Z,1012.90
2019-05-25T08:36:01.268Z,1012.95
2019-05-25T08:51:01.396Z,1013.00
2019-05-25T09:06:01.531Z,1012.99
2019-05-25T09:21:02.241Z,1013.05
2019-05-25T09:36:02.568Z,1013.09
2019-05-25T09:51:02.773Z,1013.09
2019-05-25T10:06:10.822Z,1013.31
2019-05-25T10:21:08.233Z,1013.17
2019-05-25T10:36:08.387Z,1013.16
2019-05-25T10:51:08.530Z,1013.14
2019-05-25T11:06:08.709Z,1013.16
2019-05-25T11:21:08.823Z,1013.14
2019-05-25T11:36:09.027Z,1013.21
2019-05-25T11:51:09.147Z,1013.21
2019-05-25T12:06:09.274Z,1013.24
2019-05-25T12:21:09.450Z,1013.09
2019-05-25T12:36:09.585Z,1013.16
2019-05-25T12:51:09.681Z,1013.10
2019-05-25T13:06:09.847Z,1013.11
2019-05-25T13:21:09.970Z,1012.98
2019-05-25T13:36:10.185Z,1012.94
2019-05-25T13:51:10.367Z,1012.96
2019-05-25T14:06:10.507Z,1013.00
2019-05-25T14:21:10.646Z,1012.98
2019-05-25T14:36:11.791Z,1012.95
2019-05-25T14:51:11.956Z,1012.94
2019-05-25T15:06:12.115Z,1012.83
2019-05-25T15:21:12.281Z,1012.80
2019-05-25T15:36:12.434Z,1012.79
2019-05-25T15:51:12.611Z,1012.79
2019-05-25T16:06:12.845Z,1012.89
2019-05-25T16:21:12.795Z,1012.93
2019-05-25T16:36:12.911Z,1012.82
2019-05-25T16:51:13.076Z,1012.78
2019-05-25T17:06:13.246Z,1012.79
2019-05-25T17:21:13.437Z,1012.83
2019-05-25T17:36:13.653Z,1012.76
2019-05-25T17:51:14.070Z,1012.65
2019-05-25T18:06:14.181Z,1012.59
2019-05-25T18:21:14.569Z,1012.54
2019-05-25T18:36:14.593Z,1012.65
2019-05-25T18:51:14.802Z,1012.62
2019-05-25T19:06:15.022Z,1012.78
2019-05-25T19:21:15.167Z,1012.94
2019-05-25T19:36:15.300Z,1012.92
2019-05-25T19:51:15.510Z,1012.91
2019-05-25T20:06:15.660Z,1012.95
2019-05-25T20:21:15.852Z,1013.03
2019-05-25T20:36:16.077Z,1013.11
2019-05-25T20:51:16.256Z,1013.17
2019-05-25T21:06:16.377Z,1013.13
2019-05-25T21:21:16.620Z,1013.12
2019-05-25T21:36:16.809Z,1013.10
2019-05-25T21:51:16.991Z,1012.99
2019-05-25T22:06:24.137Z,1013.04
2019-05-25T22:21:22.376Z,1012.96
2019-05-25T22:36:22.543Z,1012.91
2019-05-25T22:51:22.679Z,1012.81
2019-05-25T23:06:22.861Z,1012.80
2019-05-25T23:21:22.966Z,1012.85
2019-05-25T23:36:23.182Z,1012.85
2019-05-25T23:51:23.389Z,1012.88
